sensor_id;sensor_type;location;lat;lon;timestamp;temperature;humidity
71668;DHT22;59504;54.806;9.640;2023-04-24T00:00:10;10.80;64.70
71668;DHT22;59504;54.806;9.640;2023-04-24T00:02:13;10.80;64.60
71668;DHT22;59504;54.806;9.640;2023-04-24T00:04:14;10.80;64.40
71668;DHT22;59504;54.806;9.640;2023-04-24T00:06:17;10.70;65.00
71668;DHT22;59504;54.806;9.640;2023-04-24T00:08:21;10.80;64.80
71668;DHT22;59504;54.806;9.640;2023-04-24T00:10:40;10.80;64.60
71668;DHT22;59504;54.806;9.640;2023-04-24T00:13:01;10.80;64.60
71668;DHT22;59504;54.806;9.640;2023-04-24T00:15:22;10.90;64.70
71668;DHT22;59504;54.806;9.640;2023-04-24T00:17:23;10.90;64.80
71668;DHT22;59504;54.806;9.640;2023-04-24T00:19:24;10.80;65.80
71668;DHT22;59504;54.806;9.640;2023-04-24T00:21:25;10.80;66.40
71668;DHT22;59504;54.806;9.640;2023-04-24T00:23:33;10.90;65.70
71668;DHT22;59504;54.806;9.640;2023-04-24T00:25:53;11.00;66.10
71668;DHT22;59504;54.806;9.640;2023-04-24T00:28:14;10.90;66.80
71668;DHT22;59504;54.806;9.640;2023-04-24T00:30:34;10.90;66.60
71668;DHT22;59504;54.806;9.640;2023-04-24T00:32:55;10.90;67.30
71668;DHT22;59504;54.806;9.640;2023-04-24T00:35:16;11.00;66.30
71668;DHT22;59504;54.806;9.640;2023-04-24T00:37:36;11.00;66.50
71668;DHT22;59504;54.806;9.640;2023-04-24T00:39:57;11.00;66.40
71668;DHT22;59504;54.806;9.640;2023-04-24T00:42:17;11.00;67.00
71668;DHT22;59504;54.806;9.640;2023-04-24T00:44:38;11.00;66.40
71668;DHT22;59504;54.806;9.640;2023-04-24T00:46:58;11.00;66.20
71668;DHT22;59504;54.806;9.640;2023-04-24T00:49:20;11.00;66.30
71668;DHT22;59504;54.806;9.640;2023-04-24T00:51:44;11.00;66.40
71668;DHT22;59504;54.806;9.640;2023-04-24T00:54:05;11.10;66.10
71668;DHT22;59504;54.806;9.640;2023-04-24T00:56:26;11.10;66.30
71668;DHT22;59504;54.806;9.640;2023-04-24T00:58:47;11.10;66.30
71668;DHT22;59504;54.806;9.640;2023-04-24T01:01:08;11.00;66.20
71668;DHT22;59504;54.806;9.640;2023-04-24T01:03:09;11.00;66.40
71668;DHT22;59504;54.806;9.640;2023-04-24T01:05:12;11.10;66.40
71668;DHT22;59504;54.806;9.640;2023-04-24T01:07:12;11.10;66.50
71668;DHT22;59504;54.806;9.640;2023-04-24T01:09:13;11.00;66.40
71668;DHT22;59504;54.806;9.640;2023-04-24T01:11:14;11.00;66.60
71668;DHT22;59504;54.806;9.640;2023-04-24T01:13:15;11.10;66.60
71668;DHT22;59504;54.806;9.640;2023-04-24T01:15:16;11.00;66.50
71668;DHT22;59504;54.806;9.640;2023-04-24T01:17:16;11.10;66.40
71668;DHT22;59504;54.806;9.640;2023-04-24T01:19:17;11.10;66.20
71668;DHT22;59504;54.806;9.640;2023-04-24T01:21:18;11.00;65.90
71668;DHT22;59504;54.806;9.640;2023-04-24T01:23:21;11.10;65.90
71668;DHT22;59504;54.806;9.640;2023-04-24T01:25:22;11.10;65.80
71668;DHT22;59504;54.806;9.640;2023-04-24T01:27:23;11.00;66.10
71668;DHT22;59504;54.806;9.640;2023-04-24T01:29:24;11.00;66.20
71668;DHT22;59504;54.806;9.640;2023-04-24T01:31:24;11.00;66.40
71668;DHT22;59504;54.806;9.640;2023-04-24T01:33:25;11.00;66.60
71668;DHT22;59504;54.806;9.640;2023-04-24T01:35:26;10.90;66.70
71668;DHT22;59504;54.806;9.640;2023-04-24T01:37:26;11.00;66.60
71668;DHT22;59504;54.806;9.640;2023-04-24T01:39:27;11.00;66.40
71668;DHT22;59504;54.806;9.640;2023-04-24T01:41:29;10.90;66.00
71668;DHT22;59504;54.806;9.640;2023-04-24T01:43:29;11.00;66.00
71668;DHT22;59504;54.806;9.640;2023-04-24T01:45:30;11.00;66.20
71668;DHT22;59504;54.806;9.640;2023-04-24T01:47:32;10.90;66.00
71668;DHT22;59504;54.806;9.640;2023-04-24T01:49:33;10.90;66.10
71668;DHT22;59504;54.806;9.640;2023-04-24T01:51:33;11.00;66.70
71668;DHT22;59504;54.806;9.640;2023-04-24T01:53:34;11.00;67.80
71668;DHT22;59504;54.806;9.640;2023-04-24T01:55:35;11.00;69.40
71668;DHT22;59504;54.806;9.640;2023-04-24T01:57:35;10.90;70.50
71668;DHT22;59504;54.806;9.640;2023-04-24T01:59:36;10.90;71.50
71668;DHT22;59504;54.806;9.640;2023-04-24T02:01:37;10.90;72.40
71668;DHT22;59504;54.806;9.640;2023-04-24T02:03:41;10.80;72.90
71668;DHT22;59504;54.806;9.640;2023-04-24T02:05:43;10.80;73.10
71668;DHT22;59504;54.806;9.640;2023-04-24T02:07:44;10.80;73.20
71668;DHT22;59504;54.806;9.640;2023-04-24T02:09:44;10.80;74.10
71668;DHT22;59504;54.806;9.640;2023-04-24T02:11:45;10.70;73.50
71668;DHT22;59504;54.806;9.640;2023-04-24T02:13:48;10.70;74.10
71668;DHT22;59504;54.806;9.640;2023-04-24T02:15:48;10.70;74.20
71668;DHT22;59504;54.806;9.640;2023-04-24T02:17:49;10.70;74.20
71668;DHT22;59504;54.806;9.640;2023-04-24T02:19:50;10.70;73.70
71668;DHT22;59504;54.806;9.640;2023-04-24T02:24:12;10.70;72.90
71668;DHT22;59504;54.806;9.640;2023-04-24T02:26:12;10.70;72.60
71668;DHT22;59504;54.806;9.640;2023-04-24T02:28:13;10.70;72.10
71668;DHT22;59504;54.806;9.640;2023-04-24T02:30:13;10.70;71.60
71668;DHT22;59504;54.806;9.640;2023-04-24T02:32:14;10.70;71.40
71668;DHT22;59504;54.806;9.640;2023-04-24T02:34:15;10.70;71.10
71668;DHT22;59504;54.806;9.640;2023-04-24T02:36:16;10.70;70.80
71668;DHT22;59504;54.806;9.640;2023-04-24T02:38:17;10.70;70.80
71668;DHT22;59504;54.806;9.640;2023-04-24T02:40:17;10.70;70.60
71668;DHT22;59504;54.806;9.640;2023-04-24T02:42:18;10.70;70.60
71668;DHT22;59504;54.806;9.640;2023-04-24T02:44:18;10.70;70.50
71668;DHT22;59504;54.806;9.640;2023-04-24T02:46:21;10.70;70.40
71668;DHT22;59504;54.806;9.640;2023-04-24T02:48:22;10.70;70.60
71668;DHT22;59504;54.806;9.640;2023-04-24T02:50:24;10.60;70.60
71668;DHT22;59504;54.806;9.640;2023-04-24T02:52:28;10.60;70.70
71668;DHT22;59504;54.806;9.640;2023-04-24T02:54:29;10.60;71.00
71668;DHT22;59504;54.806;9.640;2023-04-24T02:56:29;10.70;70.60
71668;DHT22;59504;54.806;9.640;2023-04-24T02:58:30;10.60;70.50
71668;DHT22;59504;54.806;9.640;2023-04-24T03:00:30;10.60;70.20
71668;DHT22;59504;54.806;9.640;2023-04-24T03:02:34;10.70;70.40
71668;DHT22;59504;54.806;9.640;2023-04-24T03:04:34;10.60;70.20
71668;DHT22;59504;54.806;9.640;2023-04-24T03:06:35;10.60;70.10
71668;DHT22;59504;54.806;9.640;2023-04-24T03:08:35;10.60;70.30
71668;DHT22;59504;54.806;9.640;2023-04-24T03:10:36;10.60;70.40
71668;DHT22;59504;54.806;9.640;2023-04-24T03:12:37;10.70;70.20
71668;DHT22;59504;54.806;9.640;2023-04-24T03:14:37;10.60;70.30
71668;DHT22;59504;54.806;9.640;2023-04-24T03:16:38;10.60;70.00
71668;DHT22;59504;54.806;9.640;2023-04-24T03:18:38;10.60;69.80
71668;DHT22;59504;54.806;9.640;2023-04-24T03:20:39;10.60;69.70
71668;DHT22;59504;54.806;9.640;2023-04-24T03:22:40;10.60;70.00
71668;DHT22;59504;54.806;9.640;2023-04-24T03:24:40;10.60;70.20
71668;DHT22;59504;54.806;9.640;2023-04-24T03:29:07;10.60;70.50
71668;DHT22;59504;54.806;9.640;2023-04-24T03:31:08;10.70;70.40
71668;DHT22;59504;54.806;9.640;2023-04-24T03:33:08;10.70;70.40
71668;DHT22;59504;54.806;9.640;2023-04-24T03:35:10;10.70;70.40
71668;DHT22;59504;54.806;9.640;2023-04-24T03:37:10;10.70;70.50
71668;DHT22;59504;54.806;9.640;2023-04-24T03:39:11;10.60;70.50
71668;DHT22;59504;54.806;9.640;2023-04-24T03:41:11;10.70;70.40
71668;DHT22;59504;54.806;9.640;2023-04-24T03:43:12;10.70;70.40
71668;DHT22;59504;54.806;9.640;2023-04-24T03:45:13;10.70;70.40
71668;DHT22;59504;54.806;9.640;2023-04-24T03:47:13;10.70;71.60
71668;DHT22;59504;54.806;9.640;2023-04-24T03:49:14;10.70;70.80
71668;DHT22;59504;54.806;9.640;2023-04-24T03:51:14;10.70;70.80
71668;DHT22;59504;54.806;9.640;2023-04-24T03:53:15;10.80;70.90
71668;DHT22;59504;54.806;9.640;2023-04-24T03:55:15;10.80;70.80
71668;DHT22;59504;54.806;9.640;2023-04-24T03:57:16;10.70;70.40
71668;DHT22;59504;54.806;9.640;2023-04-24T03:59:16;10.80;70.40
71668;DHT22;59504;54.806;9.640;2023-04-24T04:01:17;10.70;70.40
71668;DHT22;59504;54.806;9.640;2023-04-24T04:03:19;10.80;70.30
71668;DHT22;59504;54.806;9.640;2023-04-24T04:05:19;10.80;70.40
71668;DHT22;59504;54.806;9.640;2023-04-24T04:07:20;10.80;70.50
71668;DHT22;59504;54.806;9.640;2023-04-24T04:09:20;10.80;70.50
71668;DHT22;59504;54.806;9.640;2023-04-24T04:11:21;10.80;70.70
71668;DHT22;59504;54.806;9.640;2023-04-24T04:13:41;10.90;70.80
71668;DHT22;59504;54.806;9.640;2023-04-24T04:16:02;10.90;70.60
71668;DHT22;59504;54.806;9.640;2023-04-24T04:18:03;10.90;70.70
71668;DHT22;59504;54.806;9.640;2023-04-24T04:20:03;10.90;70.60
71668;DHT22;59504;54.806;9.640;2023-04-24T04:22:09;10.90;70.80
71668;DHT22;59504;54.806;9.640;2023-04-24T04:24:09;10.90;71.10
71668;DHT22;59504;54.806;9.640;2023-04-24T04:26:11;11.00;71.10
71668;DHT22;59504;54.806;9.640;2023-04-24T04:28:12;10.90;71.20
71668;DHT22;59504;54.806;9.640;2023-04-24T04:30:13;11.00;71.20
71668;DHT22;59504;54.806;9.640;2023-04-24T04:32:14;10.90;71.00
71668;DHT22;59504;54.806;9.640;2023-04-24T04:34:15;10.90;71.00
71668;DHT22;59504;54.806;9.640;2023-04-24T04:36:16;11.10;71.20
71668;DHT22;59504;54.806;9.640;2023-04-24T04:38:19;11.00;71.20
71668;DHT22;59504;54.806;9.640;2023-04-24T04:40:19;11.00;71.00
71668;DHT22;59504;54.806;9.640;2023-04-24T04:42:20;11.00;71.10
71668;DHT22;59504;54.806;9.640;2023-04-24T04:44:20;11.10;71.00
71668;DHT22;59504;54.806;9.640;2023-04-24T04:46:24;11.10;70.90
71668;DHT22;59504;54.806;9.640;2023-04-24T04:48:27;11.00;70.80
71668;DHT22;59504;54.806;9.640;2023-04-24T04:50:29;11.00;70.90
71668;DHT22;59504;54.806;9.640;2023-04-24T04:52:30;11.10;71.70
71668;DHT22;59504;54.806;9.640;2023-04-24T04:54:34;11.10;71.40
71668;DHT22;59504;54.806;9.640;2023-04-24T04:56:34;11.20;71.20
71668;DHT22;59504;54.806;9.640;2023-04-24T04:58:35;11.10;71.10
71668;DHT22;59504;54.806;9.640;2023-04-24T05:00:37;11.20;71.00
71668;DHT22;59504;54.806;9.640;2023-04-24T05:02:38;11.20;70.90
71668;DHT22;59504;54.806;9.640;2023-04-24T05:04:43;11.20;70.80
71668;DHT22;59504;54.806;9.640;2023-04-24T05:06:47;11.20;71.50
71668;DHT22;59504;54.806;9.640;2023-04-24T05:08:48;11.20;71.60
71668;DHT22;59504;54.806;9.640;2023-04-24T05:10:50;11.20;71.50
71668;DHT22;59504;54.806;9.640;2023-04-24T05:12:52;11.20;71.80
71668;DHT22;59504;54.806;9.640;2023-04-24T05:14:52;11.20;71.30
71668;DHT22;59504;54.806;9.640;2023-04-24T05:16:57;11.30;71.40
71668;DHT22;59504;54.806;9.640;2023-04-24T05:18:59;11.30;71.00
71668;DHT22;59504;54.806;9.640;2023-04-24T05:21:03;11.30;71.30
71668;DHT22;59504;54.806;9.640;2023-04-24T05:23:24;11.20;71.70
71668;DHT22;59504;54.806;9.640;2023-04-24T05:25:45;11.30;71.50
71668;DHT22;59504;54.806;9.640;2023-04-24T05:28:06;11.30;71.50
71668;DHT22;59504;54.806;9.640;2023-04-24T05:30:36;11.30;72.00
71668;DHT22;59504;54.806;9.640;2023-04-24T05:32:57;11.30;71.20
71668;DHT22;59504;54.806;9.640;2023-04-24T05:35:17;11.30;71.30
71668;DHT22;59504;54.806;9.640;2023-04-24T05:37:39;11.20;71.00
71668;DHT22;59504;54.806;9.640;2023-04-24T05:39:46;11.20;71.20
71668;DHT22;59504;54.806;9.640;2023-04-24T05:41:47;11.20;71.20
71668;DHT22;59504;54.806;9.640;2023-04-24T05:43:47;11.30;71.10
71668;DHT22;59504;54.806;9.640;2023-04-24T05:45:48;11.20;71.10
71668;DHT22;59504;54.806;9.640;2023-04-24T05:47:50;11.30;71.20
71668;DHT22;59504;54.806;9.640;2023-04-24T05:49:52;11.30;71.20
71668;DHT22;59504;54.806;9.640;2023-04-24T05:51:53;11.20;71.00
71668;DHT22;59504;54.806;9.640;2023-04-24T05:53:54;11.30;70.80
71668;DHT22;59504;54.806;9.640;2023-04-24T05:55:54;11.30;70.60
71668;DHT22;59504;54.806;9.640;2023-04-24T05:57:55;11.30;70.50
71668;DHT22;59504;54.806;9.640;2023-04-24T05:59:57;11.30;70.30
71668;DHT22;59504;54.806;9.640;2023-04-24T06:01:59;11.30;70.10
71668;DHT22;59504;54.806;9.640;2023-04-24T06:03:59;11.30;70.00
71668;DHT22;59504;54.806;9.640;2023-04-24T06:06:02;11.30;70.00
71668;DHT22;59504;54.806;9.640;2023-04-24T06:08:06;11.30;70.00
71668;DHT22;59504;54.806;9.640;2023-04-24T06:10:10;11.30;70.00
71668;DHT22;59504;54.806;9.640;2023-04-24T06:12:11;11.30;69.90
71668;DHT22;59504;54.806;9.640;2023-04-24T06:14:11;11.20;70.00
71668;DHT22;59504;54.806;9.640;2023-04-24T06:16:12;11.20;70.30
71668;DHT22;59504;54.806;9.640;2023-04-24T06:18:33;11.30;70.50
71668;DHT22;59504;54.806;9.640;2023-04-24T06:20:34;11.30;70.50
71668;DHT22;59504;54.806;9.640;2023-04-24T06:22:57;11.30;70.10
71668;DHT22;59504;54.806;9.640;2023-04-24T06:25:01;11.30;69.90
71668;DHT22;59504;54.806;9.640;2023-04-24T06:27:22;11.20;70.00
71668;DHT22;59504;54.806;9.640;2023-04-24T06:29:31;11.30;70.10
71668;DHT22;59504;54.806;9.640;2023-04-24T06:31:51;11.30;70.00
71668;DHT22;59504;54.806;9.640;2023-04-24T06:34:12;11.40;70.10
71668;DHT22;59504;54.806;9.640;2023-04-24T06:36:32;11.30;70.10
71668;DHT22;59504;54.806;9.640;2023-04-24T06:38:57;11.40;70.20
71668;DHT22;59504;54.806;9.640;2023-04-24T06:41:17;11.30;70.20
71668;DHT22;59504;54.806;9.640;2023-04-24T06:43:38;11.30;70.00
71668;DHT22;59504;54.806;9.640;2023-04-24T06:45:59;11.40;69.90
71668;DHT22;59504;54.806;9.640;2023-04-24T06:48:20;11.40;69.90
71668;DHT22;59504;54.806;9.640;2023-04-24T06:50:40;11.40;69.90
71668;DHT22;59504;54.806;9.640;2023-04-24T06:53:01;11.50;69.90
71668;DHT22;59504;54.806;9.640;2023-04-24T06:55:21;11.40;69.90
71668;DHT22;59504;54.806;9.640;2023-04-24T06:57:42;11.50;69.80
71668;DHT22;59504;54.806;9.640;2023-04-24T07:00:03;11.50;70.00
71668;DHT22;59504;54.806;9.640;2023-04-24T07:02:25;11.40;69.80
71668;DHT22;59504;54.806;9.640;2023-04-24T07:04:46;11.40;70.00
71668;DHT22;59504;54.806;9.640;2023-04-24T07:06:47;11.50;70.10
71668;DHT22;59504;54.806;9.640;2023-04-24T07:08:49;11.50;70.20
71668;DHT22;59504;54.806;9.640;2023-04-24T07:10:50;11.50;70.10
71668;DHT22;59504;54.806;9.640;2023-04-24T07:12:51;11.50;70.10
71668;DHT22;59504;54.806;9.640;2023-04-24T07:14:52;11.60;70.60
71668;DHT22;59504;54.806;9.640;2023-04-24T07:16:52;11.60;70.40
71668;DHT22;59504;54.806;9.640;2023-04-24T07:18:53;11.70;70.40
71668;DHT22;59504;54.806;9.640;2023-04-24T07:20:53;11.80;70.50
71668;DHT22;59504;54.806;9.640;2023-04-24T07:22:54;11.80;70.50
71668;DHT22;59504;54.806;9.640;2023-04-24T07:24:55;11.90;70.40
71668;DHT22;59504;54.806;9.640;2023-04-24T07:26:55;11.90;70.10
71668;DHT22;59504;54.806;9.640;2023-04-24T07:28:57;11.90;69.80
71668;DHT22;59504;54.806;9.640;2023-04-24T07:30:57;11.90;69.70
71668;DHT22;59504;54.806;9.640;2023-04-24T07:33:00;12.00;69.80
71668;DHT22;59504;54.806;9.640;2023-04-24T07:35:01;11.90;69.40
71668;DHT22;59504;54.806;9.640;2023-04-24T07:37:01;11.90;69.20
71668;DHT22;59504;54.806;9.640;2023-04-24T07:39:02;12.00;69.20
71668;DHT22;59504;54.806;9.640;2023-04-24T07:41:03;11.90;69.00
71668;DHT22;59504;54.806;9.640;2023-04-24T07:43:03;11.90;68.90
71668;DHT22;59504;54.806;9.640;2023-04-24T07:45:04;12.00;69.00
71668;DHT22;59504;54.806;9.640;2023-04-24T07:47:05;11.90;68.80
71668;DHT22;59504;54.806;9.640;2023-04-24T07:49:06;12.00;68.80
71668;DHT22;59504;54.806;9.640;2023-04-24T07:51:07;11.90;68.60
71668;DHT22;59504;54.806;9.640;2023-04-24T07:53:10;11.90;68.70
71668;DHT22;59504;54.806;9.640;2023-04-24T07:55:10;11.90;68.70
71668;DHT22;59504;54.806;9.640;2023-04-24T07:57:11;11.90;68.60
71668;DHT22;59504;54.806;9.640;2023-04-24T07:59:12;11.90;68.60
71668;DHT22;59504;54.806;9.640;2023-04-24T08:01:12;11.90;68.70
71668;DHT22;59504;54.806;9.640;2023-04-24T08:03:13;11.90;68.70
71668;DHT22;59504;54.806;9.640;2023-04-24T08:05:13;12.00;68.80
71668;DHT22;59504;54.806;9.640;2023-04-24T08:07:14;11.90;68.80
71668;DHT22;59504;54.806;9.640;2023-04-24T08:09:14;12.00;68.80
71668;DHT22;59504;54.806;9.640;2023-04-24T08:11:15;11.90;68.80
71668;DHT22;59504;54.806;9.640;2023-04-24T08:13:16;11.90;68.70
71668;DHT22;59504;54.806;9.640;2023-04-24T08:15:16;12.00;68.70
71668;DHT22;59504;54.806;9.640;2023-04-24T08:17:17;11.90;68.50
71668;DHT22;59504;54.806;9.640;2023-04-24T08:19:17;11.90;68.60
71668;DHT22;59504;54.806;9.640;2023-04-24T08:21:18;11.90;68.50
71668;DHT22;59504;54.806;9.640;2023-04-24T08:23:19;11.90;68.70
71668;DHT22;59504;54.806;9.640;2023-04-24T08:25:19;11.90;68.50
71668;DHT22;59504;54.806;9.640;2023-04-24T08:27:20;11.80;68.70
71668;DHT22;59504;54.806;9.640;2023-04-24T08:29:20;11.90;68.90
71668;DHT22;59504;54.806;9.640;2023-04-24T08:31:23;11.80;69.20
71668;DHT22;59504;54.806;9.640;2023-04-24T08:33:25;11.80;69.00
71668;DHT22;59504;54.806;9.640;2023-04-24T08:35:29;11.80;69.30
71668;DHT22;59504;54.806;9.640;2023-04-24T08:37:30;11.80;69.20
71668;DHT22;59504;54.806;9.640;2023-04-24T08:39:30;11.80;69.40
71668;DHT22;59504;54.806;9.640;2023-04-24T08:41:33;11.80;69.90
71668;DHT22;59504;54.806;9.640;2023-04-24T08:43:37;11.80;69.60
71668;DHT22;59504;54.806;9.640;2023-04-24T08:45:39;11.90;69.90
71668;DHT22;59504;54.806;9.640;2023-04-24T08:47:40;11.80;69.70
71668;DHT22;59504;54.806;9.640;2023-04-24T08:49:41;11.80;69.80
71668;DHT22;59504;54.806;9.640;2023-04-24T08:51:57;11.90;70.20
71668;DHT22;59504;54.806;9.640;2023-04-24T08:54:00;11.90;71.00
71668;DHT22;59504;54.806;9.640;2023-04-24T08:56:01;12.00;70.80
71668;DHT22;59504;54.806;9.640;2023-04-24T08:58:07;12.00;70.80
71668;DHT22;59504;54.806;9.640;2023-04-24T09:00:08;12.00;71.00
71668;DHT22;59504;54.806;9.640;2023-04-24T09:02:12;12.00;71.10
71668;DHT22;59504;54.806;9.640;2023-04-24T09:04:13;12.10;71.00
71668;DHT22;59504;54.806;9.640;2023-04-24T09:06:17;12.10;71.20
71668;DHT22;59504;54.806;9.640;2023-04-24T09:08:18;12.10;71.00
71668;DHT22;59504;54.806;9.640;2023-04-24T09:10:19;12.10;70.70
71668;DHT22;59504;54.806;9.640;2023-04-24T09:12:37;12.10;70.50
71668;DHT22;59504;54.806;9.640;2023-04-24T09:14:37;12.10;70.40
71668;DHT22;59504;54.806;9.640;2023-04-24T09:16:51;12.20;70.30
71668;DHT22;59504;54.806;9.640;2023-04-24T09:18:52;12.10;70.30
71668;DHT22;59504;54.806;9.640;2023-04-24T09:21:03;12.10;70.60
71668;DHT22;59504;54.806;9.640;2023-04-24T09:23:04;12.10;70.40
71668;DHT22;59504;54.806;9.640;2023-04-24T09:25:06;12.00;70.50
71668;DHT22;59504;54.806;9.640;2023-04-24T09:27:07;12.00;70.50
71668;DHT22;59504;54.806;9.640;2023-04-24T09:29:13;12.00;70.50
71668;DHT22;59504;54.806;9.640;2023-04-24T09:31:15;12.00;70.30
71668;DHT22;59504;54.806;9.640;2023-04-24T09:34:06;12.00;70.10
71668;DHT22;59504;54.806;9.640;2023-04-24T09:36:06;12.00;70.40
71668;DHT22;59504;54.806;9.640;2023-04-24T09:38:07;12.00;70.50
71668;DHT22;59504;54.806;9.640;2023-04-24T09:42:11;11.90;70.20
71668;DHT22;59504;54.806;9.640;2023-04-24T09:44:15;12.00;70.50
71668;DHT22;59504;54.806;9.640;2023-04-24T09:46:16;11.90;70.60
71668;DHT22;59504;54.806;9.640;2023-04-24T09:48:32;11.90;70.80
71668;DHT22;59504;54.806;9.640;2023-04-24T09:50:34;11.90;71.90
71668;DHT22;59504;54.806;9.640;2023-04-24T09:52:40;12.00;71.00
71668;DHT22;59504;54.806;9.640;2023-04-24T09:54:41;11.90;71.20
71668;DHT22;59504;54.806;9.640;2023-04-24T09:56:43;12.00;71.40
71668;DHT22;59504;54.806;9.640;2023-04-24T09:58:45;11.80;70.90
71668;DHT22;59504;54.806;9.640;2023-04-24T10:00:46;11.90;71.30
71668;DHT22;59504;54.806;9.640;2023-04-24T10:02:50;11.90;71.60
71668;DHT22;59504;54.806;9.640;2023-04-24T10:04:55;11.90;71.30
71668;DHT22;59504;54.806;9.640;2023-04-24T10:06:57;11.90;71.20
71668;DHT22;59504;54.806;9.640;2023-04-24T10:09:00;11.90;71.50
71668;DHT22;59504;54.806;9.640;2023-04-24T10:11:01;11.90;71.50
71668;DHT22;59504;54.806;9.640;2023-04-24T10:13:02;12.00;71.30
71668;DHT22;59504;54.806;9.640;2023-04-24T10:15:04;12.00;71.60
71668;DHT22;59504;54.806;9.640;2023-04-24T10:17:06;12.00;71.50
71668;DHT22;59504;54.806;9.640;2023-04-24T10:19:09;12.00;71.50
71668;DHT22;59504;54.806;9.640;2023-04-24T10:21:10;12.00;71.20
71668;DHT22;59504;54.806;9.640;2023-04-24T10:23:10;12.10;71.20
71668;DHT22;59504;54.806;9.640;2023-04-24T10:25:13;12.00;71.50
71668;DHT22;59504;54.806;9.640;2023-04-24T10:27:15;12.00;71.40
71668;DHT22;59504;54.806;9.640;2023-04-24T10:29:19;12.10;71.60
71668;DHT22;59504;54.806;9.640;2023-04-24T10:31:19;12.10;71.50
71668;DHT22;59504;54.806;9.640;2023-04-24T10:33:21;12.10;72.00
71668;DHT22;59504;54.806;9.640;2023-04-24T10:35:23;12.20;71.70
71668;DHT22;59504;54.806;9.640;2023-04-24T10:37:27;12.10;72.20
71668;DHT22;59504;54.806;9.640;2023-04-24T10:39:30;12.20;72.20
71668;DHT22;59504;54.806;9.640;2023-04-24T10:41:33;12.10;72.00
71668;DHT22;59504;54.806;9.640;2023-04-24T10:43:37;12.20;71.90
71668;DHT22;59504;54.806;9.640;2023-04-24T10:45:45;12.20;71.70
71668;DHT22;59504;54.806;9.640;2023-04-24T10:48:33;12.20;71.60
71668;DHT22;59504;54.806;9.640;2023-04-24T10:50:27;12.10;71.40
71668;DHT22;59504;54.806;9.640;2023-04-24T10:52:43;12.20;71.40
71668;DHT22;59504;54.806;9.640;2023-04-24T10:54:47;12.20;71.20
71668;DHT22;59504;54.806;9.640;2023-04-24T11:00:12;12.20;71.20
71668;DHT22;59504;54.806;9.640;2023-04-24T11:02:16;12.20;71.30
71668;DHT22;59504;54.806;9.640;2023-04-24T11:04:21;12.20;71.40
71668;DHT22;59504;54.806;9.640;2023-04-24T11:06:29;12.20;71.30
71668;DHT22;59504;54.806;9.640;2023-04-24T11:08:38;12.20;71.30
71668;DHT22;59504;54.806;9.640;2023-04-24T11:11:00;12.20;71.30
71668;DHT22;59504;54.806;9.640;2023-04-24T11:13:08;12.20;71.30
71668;DHT22;59504;54.806;9.640;2023-04-24T11:15:14;12.20;71.40
71668;DHT22;59504;54.806;9.640;2023-04-24T11:19:31;12.20;71.20
71668;DHT22;59504;54.806;9.640;2023-04-24T11:21:44;12.30;71.10
71668;DHT22;59504;54.806;9.640;2023-04-24T11:23:48;12.20;71.00
71668;DHT22;59504;54.806;9.640;2023-04-24T11:26:10;12.20;71.00
71668;DHT22;59504;54.806;9.640;2023-04-24T11:28:14;12.20;70.90
71668;DHT22;59504;54.806;9.640;2023-04-24T11:30:18;12.30;71.60
71668;DHT22;59504;54.806;9.640;2023-04-24T11:32:24;12.20;71.00
71668;DHT22;59504;54.806;9.640;2023-04-24T11:34:27;12.20;70.90
71668;DHT22;59504;54.806;9.640;2023-04-24T11:36:29;12.20;70.80
71668;DHT22;59504;54.806;9.640;2023-04-24T11:38:31;12.20;71.00
71668;DHT22;59504;54.806;9.640;2023-04-24T11:40:32;12.20;71.00
71668;DHT22;59504;54.806;9.640;2023-04-24T11:42:36;12.30;70.90
71668;DHT22;59504;54.806;9.640;2023-04-24T11:44:37;12.20;70.70
71668;DHT22;59504;54.806;9.640;2023-04-24T11:46:38;12.20;70.80
71668;DHT22;59504;54.806;9.640;2023-04-24T11:48:44;12.20;70.80
71668;DHT22;59504;54.806;9.640;2023-04-24T11:50:48;12.20;70.70
71668;DHT22;59504;54.806;9.640;2023-04-24T11:52:49;12.10;70.70
71668;DHT22;59504;54.806;9.640;2023-04-24T11:54:50;12.20;70.80
71668;DHT22;59504;54.806;9.640;2023-04-24T11:56:51;12.30;70.80
71668;DHT22;59504;54.806;9.640;2023-04-24T11:58:52;12.20;70.80
71668;DHT22;59504;54.806;9.640;2023-04-24T12:00:58;12.20;70.60
71668;DHT22;59504;54.806;9.640;2023-04-24T12:03:12;12.20;70.50
71668;DHT22;59504;54.806;9.640;2023-04-24T12:05:22;12.20;70.50
71668;DHT22;59504;54.806;9.640;2023-04-24T12:07:23;12.20;70.50
71668;DHT22;59504;54.806;9.640;2023-04-24T12:09:24;12.20;70.70
71668;DHT22;59504;54.806;9.640;2023-04-24T12:11:31;12.20;71.00
71668;DHT22;59504;54.806;9.640;2023-04-24T12:13:33;12.30;71.00
71668;DHT22;59504;54.806;9.640;2023-04-24T12:15:33;12.30;70.90
71668;DHT22;59504;54.806;9.640;2023-04-24T12:17:37;12.30;70.80
71668;DHT22;59504;54.806;9.640;2023-04-24T12:19:49;12.40;70.80
71668;DHT22;59504;54.806;9.640;2023-04-24T12:22:00;12.30;70.80
71668;DHT22;59504;54.806;9.640;2023-04-24T12:24:06;12.30;70.80
71668;DHT22;59504;54.806;9.640;2023-04-24T12:26:06;12.40;71.00
71668;DHT22;59504;54.806;9.640;2023-04-24T12:28:18;12.30;70.80
71668;DHT22;59504;54.806;9.640;2023-04-24T12:30:21;12.40;71.00
71668;DHT22;59504;54.806;9.640;2023-04-24T12:32:23;12.50;71.10
71668;DHT22;59504;54.806;9.640;2023-04-24T12:34:25;12.50;71.00
71668;DHT22;59504;54.806;9.640;2023-04-24T12:36:26;12.60;71.20
71668;DHT22;59504;54.806;9.640;2023-04-24T12:38:28;12.70;71.30
71668;DHT22;59504;54.806;9.640;2023-04-24T12:40:37;12.60;71.00
71668;DHT22;59504;54.806;9.640;2023-04-24T12:42:47;12.80;71.10
71668;DHT22;59504;54.806;9.640;2023-04-24T12:44:48;12.70;70.80
71668;DHT22;59504;54.806;9.640;2023-04-24T12:46:49;12.80;70.70
71668;DHT22;59504;54.806;9.640;2023-04-24T12:48:53;12.80;70.60
71668;DHT22;59504;54.806;9.640;2023-04-24T12:50:53;12.70;70.40
71668;DHT22;59504;54.806;9.640;2023-04-24T12:52:56;12.80;70.40
71668;DHT22;59504;54.806;9.640;2023-04-24T12:54:58;12.70;70.10
71668;DHT22;59504;54.806;9.640;2023-04-24T12:56:59;12.80;70.00
71668;DHT22;59504;54.806;9.640;2023-04-24T12:59:00;12.60;69.80
71668;DHT22;59504;54.806;9.640;2023-04-24T13:01:08;12.60;69.80
71668;DHT22;59504;54.806;9.640;2023-04-24T13:03:09;12.60;69.80
71668;DHT22;59504;54.806;9.640;2023-04-24T13:05:18;12.50;69.70
71668;DHT22;59504;54.806;9.640;2023-04-24T13:07:19;12.50;69.70
71668;DHT22;59504;54.806;9.640;2023-04-24T13:09:25;12.50;69.60
71668;DHT22;59504;54.806;9.640;2023-04-24T13:11:26;12.40;69.60
71668;DHT22;59504;54.806;9.640;2023-04-24T13:13:26;12.40;69.60
71668;DHT22;59504;54.806;9.640;2023-04-24T13:15:27;12.30;69.60
71668;DHT22;59504;54.806;9.640;2023-04-24T13:17:28;12.40;69.80
71668;DHT22;59504;54.806;9.640;2023-04-24T13:19:28;12.30;69.80